sensor_id;sensor_type;location;lat;lon;timestamp;P1;durP1;ratioP1;P2;durP2;ratioP2
20997;SDS011;10657;51.276;6.390;2023-08-08T00:00:25;6.95;;;2.20;;
20997;SDS011;10657;51.276;6.390;2023-08-08T00:02:52;7.13;;;2.30;;
20997;SDS011;10657;51.276;6.390;2023-08-08T00:05:18;5.78;;;2.42;;
20997;SDS011;10657;51.276;6.390;2023-08-08T00:07:45;5.95;;;2.20;;
20997;SDS011;10657;51.276;6.390;2023-08-08T00:10:12;6.15;;;2.67;;
20997;SDS011;10657;51.276;6.390;2023-08-08T00:12:38;7.50;;;2.30;;
20997;SDS011;10657;51.276;6.390;2023-08-08T00:15:05;6.85;;;2.67;;
20997;SDS011;10657;51.276;6.390;2023-08-08T00:17:32;7.40;;;2.50;;
20997;SDS011;10657;51.276;6.390;2023-08-08T00:19:59;6.18;;;1.95;;
20997;SDS011;10657;51.276;6.390;2023-08-08T00:22:26;9.80;;;2.95;;
20997;SDS011;10657;51.276;6.390;2023-08-08T00:24:53;10.57;;;3.67;;
20997;SDS011;10657;51.276;6.390;2023-08-08T00:27:19;7.45;;;2.35;;
20997;SDS011;10657;51.276;6.390;2023-08-08T00:29:46;7.07;;;2.38;;
20997;SDS011;10657;51.276;6.390;2023-08-08T00:32:13;6.05;;;2.50;;
20997;SDS011;10657;51.276;6.390;2023-08-08T00:34:40;6.30;;;2.67;;
20997;SDS011;10657;51.276;6.390;2023-08-08T00:37:06;8.73;;;2.60;;
20997;SDS011;10657;51.276;6.390;2023-08-08T00:39:33;6.70;;;2.78;;
20997;SDS011;10657;51.276;6.390;2023-08-08T00:42:00;6.97;;;2.50;;
20997;SDS011;10657;51.276;6.390;2023-08-08T00:44:27;7.78;;;2.67;;
20997;SDS011;10657;51.276;6.390;2023-08-08T00:46:53;6.65;;;2.95;;
20997;SDS011;10657;51.276;6.390;2023-08-08T00:49:21;6.22;;;2.65;;
20997;SDS011;10657;51.276;6.390;2023-08-08T00:51:48;7.85;;;2.80;;
20997;SDS011;10657;51.276;6.390;2023-08-08T00:54:16;7.63;;;2.90;;
20997;SDS011;10657;51.276;6.390;2023-08-08T00:56:42;6.68;;;2.78;;
20997;SDS011;10657;51.276;6.390;2023-08-08T00:59:09;7.78;;;2.80;;
20997;SDS011;10657;51.276;6.390;2023-08-08T01:01:38;8.18;;;2.90;;
20997;SDS011;10657;51.276;6.390;2023-08-08T01:04:04;7.13;;;2.60;;
20997;SDS011;10657;51.276;6.390;2023-08-08T01:06:42;6.43;;;2.40;;
20997;SDS011;10657;51.276;6.390;2023-08-08T01:09:34;7.55;;;2.85;;
20997;SDS011;10657;51.276;6.390;2023-08-08T01:12:05;6.22;;;2.33;;
20997;SDS011;10657;51.276;6.390;2023-08-08T01:14:35;6.10;;;2.45;;
20997;SDS011;10657;51.276;6.390;2023-08-08T01:17:04;5.80;;;2.55;;
20997;SDS011;10657;51.276;6.390;2023-08-08T01:19:32;6.32;;;2.55;;
20997;SDS011;10657;51.276;6.390;2023-08-08T01:22:04;8.80;;;2.60;;
20997;SDS011;10657;51.276;6.390;2023-08-08T01:24:33;6.03;;;2.50;;
20997;SDS011;10657;51.276;6.390;2023-08-08T01:27:04;8.35;;;2.28;;
20997;SDS011;10657;51.276;6.390;2023-08-08T01:29:31;7.15;;;2.38;;
20997;SDS011;10657;51.276;6.390;2023-08-08T01:31:59;5.95;;;2.38;;
20997;SDS011;10657;51.276;6.390;2023-08-08T01:34:26;8.13;;;2.53;;
20997;SDS011;10657;51.276;6.390;2023-08-08T01:36:57;5.70;;;2.30;;
20997;SDS011;10657;51.276;6.390;2023-08-08T01:39:30;8.20;;;2.65;;
20997;SDS011;10657;51.276;6.390;2023-08-08T01:41:59;6.75;;;2.40;;
20997;SDS011;10657;51.276;6.390;2023-08-08T01:44:27;12.95;;;2.85;;
20997;SDS011;10657;51.276;6.390;2023-08-08T01:46:55;9.10;;;2.85;;
20997;SDS011;10657;51.276;6.390;2023-08-08T01:49:22;6.00;;;2.60;;
20997;SDS011;10657;51.276;6.390;2023-08-08T01:51:49;7.72;;;2.88;;
20997;SDS011;10657;51.276;6.390;2023-08-08T01:54:16;6.72;;;2.50;;
20997;SDS011;10657;51.276;6.390;2023-08-08T01:56:43;7.25;;;2.40;;
20997;SDS011;10657;51.276;6.390;2023-08-08T01:59:10;8.32;;;2.60;;
20997;SDS011;10657;51.276;6.390;2023-08-08T02:01:39;7.13;;;2.55;;
20997;SDS011;10657;51.276;6.390;2023-08-08T02:04:06;6.30;;;2.78;;
20997;SDS011;10657;51.276;6.390;2023-08-08T02:06:32;9.80;;;3.20;;
20997;SDS011;10657;51.276;6.390;2023-08-08T02:09:00;7.78;;;2.85;;
20997;SDS011;10657;51.276;6.390;2023-08-08T02:11:26;6.82;;;2.92;;
20997;SDS011;10657;51.276;6.390;2023-08-08T02:13:53;7.25;;;2.30;;
20997;SDS011;10657;51.276;6.390;2023-08-08T02:16:20;9.80;;;2.70;;
20997;SDS011;10657;51.276;6.390;2023-08-08T02:18:46;8.60;;;2.45;;
20997;SDS011;10657;51.276;6.390;2023-08-08T02:21:13;8.73;;;2.60;;
20997;SDS011;10657;51.276;6.390;2023-08-08T02:23:40;6.57;;;2.50;;
20997;SDS011;10657;51.276;6.390;2023-08-08T02:26:06;7.85;;;2.50;;
20997;SDS011;10657;51.276;6.390;2023-08-08T02:28:33;8.63;;;2.60;;
20997;SDS011;10657;51.276;6.390;2023-08-08T02:31:00;7.20;;;2.63;;
20997;SDS011;10657;51.276;6.390;2023-08-08T02:33:26;10.30;;;2.40;;
20997;SDS011;10657;51.276;6.390;2023-08-08T02:35:53;7.72;;;2.55;;
20997;SDS011;10657;51.276;6.390;2023-08-08T02:38:20;6.25;;;2.45;;
20997;SDS011;10657;51.276;6.390;2023-08-08T02:40:46;7.72;;;2.80;;
20997;SDS011;10657;51.276;6.390;2023-08-08T02:43:13;9.48;;;2.30;;
20997;SDS011;10657;51.276;6.390;2023-08-08T02:45:40;5.43;;;2.17;;
20997;SDS011;10657;51.276;6.390;2023-08-08T02:48:06;8.05;;;2.20;;
20997;SDS011;10657;51.276;6.390;2023-08-08T02:50:33;7.50;;;2.15;;
20997;SDS011;10657;51.276;6.390;2023-08-08T02:53:00;9.40;;;2.28;;
20997;SDS011;10657;51.276;6.390;2023-08-08T02:55:27;5.82;;;2.40;;
20997;SDS011;10657;51.276;6.390;2023-08-08T02:57:53;6.68;;;2.30;;
20997;SDS011;10657;51.276;6.390;2023-08-08T03:00:20;8.65;;;2.35;;
20997;SDS011;10657;51.276;6.390;2023-08-08T03:02:47;8.90;;;2.42;;
20997;SDS011;10657;51.276;6.390;2023-08-08T03:05:13;7.00;;;2.28;;
20997;SDS011;10657;51.276;6.390;2023-08-08T03:07:40;7.53;;;2.28;;
20997;SDS011;10657;51.276;6.390;2023-08-08T03:10:07;7.90;;;2.25;;
20997;SDS011;10657;51.276;6.390;2023-08-08T03:12:34;9.73;;;2.65;;
20997;SDS011;10657;51.276;6.390;2023-08-08T03:15:01;6.55;;;2.47;;
20997;SDS011;10657;51.276;6.390;2023-08-08T03:17:27;7.97;;;2.13;;
20997;SDS011;10657;51.276;6.390;2023-08-08T03:19:54;7.10;;;2.35;;
20997;SDS011;10657;51.276;6.390;2023-08-08T03:22:22;10.77;;;2.40;;
20997;SDS011;10657;51.276;6.390;2023-08-08T03:24:48;8.70;;;2.67;;
20997;SDS011;10657;51.276;6.390;2023-08-08T03:27:15;8.07;;;2.60;;
20997;SDS011;10657;51.276;6.390;2023-08-08T03:29:42;11.95;;;2.40;;
20997;SDS011;10657;51.276;6.390;2023-08-08T03:32:08;11.52;;;2.45;;
20997;SDS011;10657;51.276;6.390;2023-08-08T03:34:35;8.10;;;2.22;;
20997;SDS011;10657;51.276;6.390;2023-08-08T03:37:02;9.68;;;3.30;;
20997;SDS011;10657;51.276;6.390;2023-08-08T03:39:28;9.32;;;2.53;;
20997;SDS011;10657;51.276;6.390;2023-08-08T03:41:55;7.57;;;2.08;;
20997;SDS011;10657;51.276;6.390;2023-08-08T03:44:22;8.77;;;2.30;;
20997;SDS011;10657;51.276;6.390;2023-08-08T03:46:49;9.07;;;2.97;;
20997;SDS011;10657;51.276;6.390;2023-08-08T03:49:20;10.85;;;2.47;;
20997;SDS011;10657;51.276;6.390;2023-08-08T03:51:47;9.40;;;2.60;;
20997;SDS011;10657;51.276;6.390;2023-08-08T03:54:14;9.63;;;2.53;;
20997;SDS011;10657;51.276;6.390;2023-08-08T03:56:41;8.00;;;2.83;;
20997;SDS011;10657;51.276;6.390;2023-08-08T03:59:08;10.90;;;2.88;;
20997;SDS011;10657;51.276;6.390;2023-08-08T04:01:34;9.10;;;2.85;;
20997;SDS011;10657;51.276;6.390;2023-08-08T04:04:01;9.05;;;2.80;;
20997;SDS011;10657;51.276;6.390;2023-08-08T04:06:28;9.88;;;2.83;;
20997;SDS011;10657;51.276;6.390;2023-08-08T04:08:55;11.73;;;3.15;;
20997;SDS011;10657;51.276;6.390;2023-08-08T04:11:22;9.38;;;2.80;;
20997;SDS011;10657;51.276;6.390;2023-08-08T04:13:48;7.78;;;2.70;;
20997;SDS011;10657;51.276;6.390;2023-08-08T04:16:15;9.98;;;3.05;;
20997;SDS011;10657;51.276;6.390;2023-08-08T04:18:41;12.07;;;2.85;;
20997;SDS011;10657;51.276;6.390;2023-08-08T04:21:08;8.55;;;2.40;;
20997;SDS011;10657;51.276;6.390;2023-08-08T04:23:35;11.73;;;2.72;;
20997;SDS011;10657;51.276;6.390;2023-08-08T04:26:02;10.57;;;2.60;;
20997;SDS011;10657;51.276;6.390;2023-08-08T04:28:29;9.25;;;3.08;;
20997;SDS011;10657;51.276;6.390;2023-08-08T04:30:57;10.13;;;2.92;;
20997;SDS011;10657;51.276;6.390;2023-08-08T04:33:23;11.35;;;3.33;;
20997;SDS011;10657;51.276;6.390;2023-08-08T04:35:50;8.43;;;2.50;;
20997;SDS011;10657;51.276;6.390;2023-08-08T04:38:17;11.23;;;2.67;;
20997;SDS011;10657;51.276;6.390;2023-08-08T04:40:44;8.32;;;2.67;;
20997;SDS011;10657;51.276;6.390;2023-08-08T04:43:10;8.73;;;2.70;;
20997;SDS011;10657;51.276;6.390;2023-08-08T04:45:37;13.05;;;3.33;;
20997;SDS011;10657;51.276;6.390;2023-08-08T04:48:04;11.65;;;4.60;;
20997;SDS011;10657;51.276;6.390;2023-08-08T04:50:31;8.27;;;3.45;;
20997;SDS011;10657;51.276;6.390;2023-08-08T04:52:58;7.93;;;2.92;;
20997;SDS011;10657;51.276;6.390;2023-08-08T04:55:24;14.02;;;3.80;;
20997;SDS011;10657;51.276;6.390;2023-08-08T04:57:51;10.32;;;3.00;;
20997;SDS011;10657;51.276;6.390;2023-08-08T05:00:17;10.57;;;3.70;;
20997;SDS011;10657;51.276;6.390;2023-08-08T05:02:44;16.42;;;3.60;;
20997;SDS011;10657;51.276;6.390;2023-08-08T05:05:11;14.25;;;3.15;;
20997;SDS011;10657;51.276;6.390;2023-08-08T05:07:38;11.10;;;3.33;;
20997;SDS011;10657;51.276;6.390;2023-08-08T05:10:04;20.42;;;3.03;;
20997;SDS011;10657;51.276;6.390;2023-08-08T05:12:31;10.77;;;3.17;;
20997;SDS011;10657;51.276;6.390;2023-08-08T05:14:58;13.02;;;3.30;;
20997;SDS011;10657;51.276;6.390;2023-08-08T05:17:25;13.80;;;3.75;;
20997;SDS011;10657;51.276;6.390;2023-08-08T05:19:52;9.73;;;3.28;;
20997;SDS011;10657;51.276;6.390;2023-08-08T05:22:18;12.00;;;3.53;;
20997;SDS011;10657;51.276;6.390;2023-08-08T05:24:45;13.93;;;3.60;;
20997;SDS011;10657;51.276;6.390;2023-08-08T05:27:12;11.23;;;3.45;;
20997;SDS011;10657;51.276;6.390;2023-08-08T05:29:38;13.52;;;3.40;;
20997;SDS011;10657;51.276;6.390;2023-08-08T05:32:07;10.90;;;4.32;;
20997;SDS011;10657;51.276;6.390;2023-08-08T05:34:34;12.38;;;3.90;;
20997;SDS011;10657;51.276;6.390;2023-08-08T05:37:01;13.20;;;4.15;;
20997;SDS011;10657;51.276;6.390;2023-08-08T05:39:42;12.18;;;3.95;;
20997;SDS011;10657;51.276;6.390;2023-08-08T05:42:08;10.55;;;3.25;;
20997;SDS011;10657;51.276;6.390;2023-08-08T05:44:35;13.88;;;3.40;;
20997;SDS011;10657;51.276;6.390;2023-08-08T05:47:02;11.18;;;3.47;;
20997;SDS011;10657;51.276;6.390;2023-08-08T05:49:28;10.38;;;3.50;;
20997;SDS011;10657;51.276;6.390;2023-08-08T05:51:55;10.50;;;3.47;;
20997;SDS011;10657;51.276;6.390;2023-08-08T05:54:22;13.75;;;3.50;;
20997;SDS011;10657;51.276;6.390;2023-08-08T05:56:48;10.55;;;3.17;;
20997;SDS011;10657;51.276;6.390;2023-08-08T05:59:15;16.30;;;4.60;;
20997;SDS011;10657;51.276;6.390;2023-08-08T06:01:42;13.65;;;4.50;;
20997;SDS011;10657;51.276;6.390;2023-08-08T06:04:10;9.38;;;3.63;;
20997;SDS011;10657;51.276;6.390;2023-08-08T06:06:37;11.70;;;3.85;;
20997;SDS011;10657;51.276;6.390;2023-08-08T06:09:04;11.82;;;4.15;;
20997;SDS011;10657;51.276;6.390;2023-08-08T06:11:31;11.02;;;3.50;;
20997;SDS011;10657;51.276;6.390;2023-08-08T06:13:58;14.00;;;4.20;;
20997;SDS011;10657;51.276;6.390;2023-08-08T06:16:24;12.40;;;4.18;;
20997;SDS011;10657;51.276;6.390;2023-08-08T06:18:52;13.75;;;3.83;;
20997;SDS011;10657;51.276;6.390;2023-08-08T06:21:19;13.63;;;3.47;;
20997;SDS011;10657;51.276;6.390;2023-08-08T06:23:45;10.25;;;3.78;;
20997;SDS011;10657;51.276;6.390;2023-08-08T06:26:13;11.25;;;4.20;;
20997;SDS011;10657;51.276;6.390;2023-08-08T06:28:40;13.02;;;3.80;;
20997;SDS011;10657;51.276;6.390;2023-08-08T06:31:07;11.23;;;4.10;;
20997;SDS011;10657;51.276;6.390;2023-08-08T06:33:33;11.93;;;4.18;;
20997;SDS011;10657;51.276;6.390;2023-08-08T06:36:01;12.38;;;4.15;;
20997;SDS011;10657;51.276;6.390;2023-08-08T06:38:29;13.95;;;4.65;;
20997;SDS011;10657;51.276;6.390;2023-08-08T06:41:00;16.70;;;4.75;;
20997;SDS011;10657;51.276;6.390;2023-08-08T06:43:28;11.32;;;4.38;;
20997;SDS011;10657;51.276;6.390;2023-08-08T06:45:56;10.68;;;3.55;;
20997;SDS011;10657;51.276;6.390;2023-08-08T06:48:23;11.27;;;4.00;;
20997;SDS011;10657;51.276;6.390;2023-08-08T06:50:49;10.18;;;3.67;;
20997;SDS011;10657;51.276;6.390;2023-08-08T06:53:16;11.30;;;3.38;;
20997;SDS011;10657;51.276;6.390;2023-08-08T06:55:43;12.95;;;3.95;;
20997;SDS011;10657;51.276;6.390;2023-08-08T06:58:10;12.15;;;4.15;;
20997;SDS011;10657;51.276;6.390;2023-08-08T07:00:36;12.77;;;3.78;;
20997;SDS011;10657;51.276;6.390;2023-08-08T07:03:03;15.73;;;5.28;;
20997;SDS011;10657;51.276;6.390;2023-08-08T07:05:30;12.93;;;4.82;;
20997;SDS011;10657;51.276;6.390;2023-08-08T07:07:57;11.45;;;4.45;;
20997;SDS011;10657;51.276;6.390;2023-08-08T07:10:23;14.00;;;4.80;;
20997;SDS011;10657;51.276;6.390;2023-08-08T07:12:50;13.35;;;4.95;;
20997;SDS011;10657;51.276;6.390;2023-08-08T07:15:18;13.02;;;4.75;;
20997;SDS011;10657;51.276;6.390;2023-08-08T07:17:45;17.95;;;4.85;;
20997;SDS011;10657;51.276;6.390;2023-08-08T07:20:12;11.05;;;4.60;;
20997;SDS011;10657;51.276;6.390;2023-08-08T07:22:40;12.98;;;4.22;;
20997;SDS011;10657;51.276;6.390;2023-08-08T07:25:07;9.68;;;4.07;;
20997;SDS011;10657;51.276;6.390;2023-08-08T07:27:34;14.50;;;3.95;;
20997;SDS011;10657;51.276;6.390;2023-08-08T07:30:00;11.30;;;4.65;;
20997;SDS011;10657;51.276;6.390;2023-08-08T07:32:28;13.48;;;4.47;;
20997;SDS011;10657;51.276;6.390;2023-08-08T07:34:58;11.07;;;4.05;;
20997;SDS011;10657;51.276;6.390;2023-08-08T07:37:27;16.50;;;4.45;;
20997;SDS011;10657;51.276;6.390;2023-08-08T07:39:54;12.60;;;4.45;;
20997;SDS011;10657;51.276;6.390;2023-08-08T07:42:21;10.88;;;3.80;;
20997;SDS011;10657;51.276;6.390;2023-08-08T07:44:47;12.43;;;4.63;;
20997;SDS011;10657;51.276;6.390;2023-08-08T07:47:14;14.60;;;5.28;;
20997;SDS011;10657;51.276;6.390;2023-08-08T07:49:41;14.15;;;4.32;;
20997;SDS011;10657;51.276;6.390;2023-08-08T07:52:07;12.07;;;3.80;;
20997;SDS011;10657;51.276;6.390;2023-08-08T07:54:34;16.20;;;5.22;;
20997;SDS011;10657;51.276;6.390;2023-08-08T07:57:01;13.82;;;4.65;;
20997;SDS011;10657;51.276;6.390;2023-08-08T07:59:27;12.23;;;4.38;;
20997;SDS011;10657;51.276;6.390;2023-08-08T08:01:54;14.13;;;4.45;;
20997;SDS011;10657;51.276;6.390;2023-08-08T08:04:21;12.13;;;3.88;;
20997;SDS011;10657;51.276;6.390;2023-08-08T08:06:47;11.57;;;3.67;;
20997;SDS011;10657;51.276;6.390;2023-08-08T08:09:14;16.52;;;4.78;;
20997;SDS011;10657;51.276;6.390;2023-08-08T08:11:41;10.27;;;3.50;;
20997;SDS011;10657;51.276;6.390;2023-08-08T08:14:07;10.85;;;3.90;;
20997;SDS011;10657;51.276;6.390;2023-08-08T08:16:34;15.35;;;4.47;;
20997;SDS011;10657;51.276;6.390;2023-08-08T08:19:01;12.13;;;3.83;;
20997;SDS011;10657;51.276;6.390;2023-08-08T08:21:28;12.05;;;3.75;;
20997;SDS011;10657;51.276;6.390;2023-08-08T08:23:54;11.73;;;3.78;;
20997;SDS011;10657;51.276;6.390;2023-08-08T08:26:21;13.38;;;3.90;;
20997;SDS011;10657;51.276;6.390;2023-08-08T08:28:48;12.10;;;3.53;;
20997;SDS011;10657;51.276;6.390;2023-08-08T08:31:14;14.02;;;4.53;;
20997;SDS011;10657;51.276;6.390;2023-08-08T08:33:41;12.18;;;3.95;;
20997;SDS011;10657;51.276;6.390;2023-08-08T08:36:08;12.55;;;3.70;;
20997;SDS011;10657;51.276;6.390;2023-08-08T08:38:37;15.50;;;4.07;;
20997;SDS011;10657;51.276;6.390;2023-08-08T08:41:03;13.23;;;4.10;;
20997;SDS011;10657;51.276;6.390;2023-08-08T08:43:31;13.85;;;3.97;;
20997;SDS011;10657;51.276;6.390;2023-08-08T08:45:59;14.20;;;4.20;;
20997;SDS011;10657;51.276;6.390;2023-08-08T08:48:28;15.25;;;4.10;;
20997;SDS011;10657;51.276;6.390;2023-08-08T08:50:54;11.20;;;4.32;;
20997;SDS011;10657;51.276;6.390;2023-08-08T08:53:21;13.90;;;4.03;;
20997;SDS011;10657;51.276;6.390;2023-08-08T08:55:49;8.98;;;3.15;;
20997;SDS011;10657;51.276;6.390;2023-08-08T08:58:17;13.82;;;3.60;;
20997;SDS011;10657;51.276;6.390;2023-08-08T09:00:44;12.02;;;3.75;;
20997;SDS011;10657;51.276;6.390;2023-08-08T09:03:13;9.98;;;3.92;;
20997;SDS011;10657;51.276;6.390;2023-08-08T09:05:40;12.18;;;3.83;;
20997;SDS011;10657;51.276;6.390;2023-08-08T09:08:08;15.70;;;4.22;;
20997;SDS011;10657;51.276;6.390;2023-08-08T09:10:35;14.70;;;3.42;;
20997;SDS011;10657;51.276;6.390;2023-08-08T09:13:02;12.05;;;3.42;;
20997;SDS011;10657;51.276;6.390;2023-08-08T09:15:32;12.02;;;3.67;;
20997;SDS011;10657;51.276;6.390;2023-08-08T09:18:00;16.05;;;3.58;;
20997;SDS011;10657;51.276;6.390;2023-08-08T09:20:27;14.05;;;3.88;;
20997;SDS011;10657;51.276;6.390;2023-08-08T09:22:54;14.05;;;4.40;;
20997;SDS011;10657;51.276;6.390;2023-08-08T09:25:21;8.43;;;3.90;;
20997;SDS011;10657;51.276;6.390;2023-08-08T09:27:52;11.00;;;3.63;;
20997;SDS011;10657;51.276;6.390;2023-08-08T09:30:19;8.75;;;3.22;;
20997;SDS011;10657;51.276;6.390;2023-08-08T09:32:46;12.32;;;3.58;;
20997;SDS011;10657;51.276;6.390;2023-08-08T09:35:13;12.40;;;3.53;;
20997;SDS011;10657;51.276;6.390;2023-08-08T09:37:41;10.75;;;3.42;;
20997;SDS011;10657;51.276;6.390;2023-08-08T09:40:08;10.65;;;3.22;;
20997;SDS011;10657;51.276;6.390;2023-08-08T09:42:37;9.48;;;3.00;;
20997;SDS011;10657;51.276;6.390;2023-08-08T09:45:05;10.55;;;3.50;;
20997;SDS011;10657;51.276;6.390;2023-08-08T09:47:34;12.25;;;3.10;;
20997;SDS011;10657;51.276;6.390;2023-08-08T09:50:01;9.82;;;3.25;;
20997;SDS011;10657;51.276;6.390;2023-08-08T09:52:31;13.63;;;3.33;;
20997;SDS011;10657;51.276;6.390;2023-08-08T09:55:00;11.65;;;3.20;;
20997;SDS011;10657;51.276;6.390;2023-08-08T09:57:27;15.65;;;3.28;;
20997;SDS011;10657;51.276;6.390;2023-08-08T09:59:55;10.63;;;2.60;;
20997;SDS011;10657;51.276;6.390;2023-08-08T10:02:22;7.68;;;2.75;;
20997;SDS011;10657;51.276;6.390;2023-08-08T10:04:48;12.15;;;2.63;;
20997;SDS011;10657;51.276;6.390;2023-08-08T10:07:16;9.90;;;2.80;;
20997;SDS011;10657;51.276;6.390;2023-08-08T10:09:42;11.93;;;2.90;;
20997;SDS011;10657;51.276;6.390;2023-08-08T10:12:10;10.27;;;3.40;;
20997;SDS011;10657;51.276;6.390;2023-08-08T10:14:41;11.40;;;3.95;;
20997;SDS011;10657;51.276;6.390;2023-08-08T10:17:12;9.10;;;2.97;;
20997;SDS011;10657;51.276;6.390;2023-08-08T10:19:40;16.60;;;3.15;;
20997;SDS011;10657;51.276;6.390;2023-08-08T10:22:15;11.70;;;3.28;;
20997;SDS011;10657;51.276;6.390;2023-08-08T10:24:50;10.73;;;3.10;;
20997;SDS011;10657;51.276;6.390;2023-08-08T10:27:31;13.30;;;3.65;;
20997;SDS011;10657;51.276;6.390;2023-08-08T10:30:08;14.05;;;4.22;;
20997;SDS011;10657;51.276;6.390;2023-08-08T10:32:40;13.98;;;3.60;;
20997;SDS011;10657;51.276;6.390;2023-08-08T10:35:08;12.15;;;3.90;;
20997;SDS011;10657;51.276;6.390;2023-08-08T10:37:35;10.85;;;3.58;;
20997;SDS011;10657;51.276;6.390;2023-08-08T10:40:04;8.15;;;3.15;;
20997;SDS011;10657;51.276;6.390;2023-08-08T10:42:32;11.70;;;3.40;;
20997;SDS011;10657;51.276;6.390;2023-08-08T10:45:09;9.52;;;3.92;;
20997;SDS011;10657;51.276;6.390;2023-08-08T10:47:39;9.43;;;3.22;;
20997;SDS011;10657;51.276;6.390;2023-08-08T10:55:30;12.57;;;4.30;;
20997;SDS011;10657;51.276;6.390;2023-08-08T10:58:09;15.57;;;4.00;;
20997;SDS011;10657;51.276;6.390;2023-08-08T11:00:41;13.70;;;4.65;;
20997;SDS011;10657;51.276;6.390;2023-08-08T11:03:08;8.02;;;3.38;;
20997;SDS011;10657;51.276;6.390;2023-08-08T11:05:36;12.73;;;4.20;;
20997;SDS011;10657;51.276;6.390;2023-08-08T11:08:04;12.63;;;3.90;;
20997;SDS011;10657;51.276;6.390;2023-08-08T11:10:35;11.65;;;3.75;;
20997;SDS011;10657;51.276;6.390;2023-08-08T11:13:04;9.95;;;3.50;;
20997;SDS011;10657;51.276;6.390;2023-08-08T11:15:33;13.05;;;3.20;;
20997;SDS011;10657;51.276;6.390;2023-08-08T11:18:01;9.20;;;2.80;;
20997;SDS011;10657;51.276;6.390;2023-08-08T11:20:33;9.57;;;3.38;;
20997;SDS011;10657;51.276;6.390;2023-08-08T11:23:01;10.95;;;3.05;;
20997;SDS011;10657;51.276;6.390;2023-08-08T11:25:30;8.10;;;2.70;;
20997;SDS011;10657;51.276;6.390;2023-08-08T11:27:57;10.77;;;3.20;;
20997;SDS011;10657;51.276;6.390;2023-08-08T11:30:27;9.32;;;3.00;;
20997;SDS011;10657;51.276;6.390;2023-08-08T11:32:55;12.02;;;3.88;;
20997;SDS011;10657;51.276;6.390;2023-08-08T11:35:25;9.93;;;3.60;;
20997;SDS011;10657;51.276;6.390;2023-08-08T11:37:53;10.65;;;3.20;;
20997;SDS011;10657;51.276;6.390;2023-08-08T11:40:22;10.23;;;3.35;;
20997;SDS011;10657;51.276;6.390;2023-08-08T11:42:51;11.02;;;3.38;;
20997;SDS011;10657;51.276;6.390;2023-08-08T11:45:18;12.13;;;3.40;;
20997;SDS011;10657;51.276;6.390;2023-08-08T11:47:49;11.02;;;3.30;;
20997;SDS011;10657;51.276;6.390;2023-08-08T11:50:20;11.05;;;3.58;;
20997;SDS011;10657;51.276;6.390;2023-08-08T11:52:50;7.88;;;2.85;;
20997;SDS011;10657;51.276;6.390;2023-08-08T11:55:26;13.63;;;3.25;;
20997;SDS011;10657;51.276;6.390;2023-08-08T11:57:54;9.63;;;3.10;;
20997;SDS011;10657;51.276;6.390;2023-08-08T12:00:25;9.80;;;3.15;;
20997;SDS011;10657;51.276;6.390;2023-08-08T12:02:54;9.95;;;3.00;;
20997;SDS011;10657;51.276;6.390;2023-08-08T12:05:21;8.82;;;2.78;;
20997;SDS011;10657;51.276;6.390;2023-08-08T12:07:48;8.13;;;2.85;;
20997;SDS011;10657;51.276;6.390;2023-08-08T12:10:19;6.15;;;2.35;;
20997;SDS011;10657;51.276;6.390;2023-08-08T12:12:51;9.57;;;3.30;;
20997;SDS011;10657;51.276;6.390;2023-08-08T12:15:20;8.65;;;2.90;;
20997;SDS011;10657;51.276;6.390;2023-08-08T12:17:46;9.65;;;3.25;;
20997;SDS011;10657;51.276;6.390;2023-08-08T12:20:14;12.13;;;3.28;;
20997;SDS011;10657;51.276;6.390;2023-08-08T12:22:41;8.40;;;2.67;;
20997;SDS011;10657;51.276;6.390;2023-08-08T12:25:08;7.47;;;2.83;;
20997;SDS011;10657;51.276;6.390;2023-08-08T12:27:34;8.95;;;3.10;;
20997;SDS011;10657;51.276;6.390;2023-08-08T12:30:01;7.90;;;2.80;;
20997;SDS011;10657;51.276;6.390;2023-08-08T12:32:28;9.82;;;3.05;;
20997;SDS011;10657;51.276;6.390;2023-08-08T12:34:57;8.50;;;2.70;;
20997;SDS011;10657;51.276;6.390;2023-08-08T12:37:24;8.75;;;3.08;;
20997;SDS011;10657;51.276;6.390;2023-08-08T12:39:51;9.23;;;3.08;;
20997;SDS011;10657;51.276;6.390;2023-08-08T12:42:18;7.82;;;2.80;;
20997;SDS011;10657;51.276;6.390;2023-08-08T12:44:45;10.32;;;3.22;;
20997;SDS011;10657;51.276;6.390;2023-08-08T12:47:14;9.65;;;3.35;;
20997;SDS011;10657;51.276;6.390;2023-08-08T12:49:41;9.88;;;3.20;;
20997;SDS011;10657;51.276;6.390;2023-08-08T12:52:08;9.90;;;3.20;;
20997;SDS011;10657;51.276;6.390;2023-08-08T12:54:35;6.82;;;2.70;;
20997;SDS011;10657;51.276;6.390;2023-08-08T12:57:02;8.20;;;2.88;;
20997;SDS011;10657;51.276;6.390;2023-08-08T12:59:29;6.35;;;2.60;;
20997;SDS011;10657;51.276;6.390;2023-08-08T13:01:56;8.20;;;2.58;;
20997;SDS011;10657;51.276;6.390;2023-08-08T13:04:23;12.80;;;2.78;;
20997;SDS011;10657;51.276;6.390;2023-08-08T13:06:49;10.85;;;2.35;;
20997;SDS011;10657;51.276;6.390;2023-08-08T13:09:16;8.00;;;3.00;;
20997;SDS011;10657;51.276;6.390;2023-08-08T13:11:43;10.88;;;3.10;;
20997;SDS011;10657;51.276;6.390;2023-08-08T13:14:10;9.10;;;3.20;;
20997;SDS011;10657;51.276;6.390;2023-08-08T13:16:36;7.65;;;2.67;;
20997;SDS011;10657;51.276;6.390;2023-08-08T13:19:03;8.13;;;3.10;;
20997;SDS011;10657;51.276;6.390;2023-08-08T13:21:31;7.22;;;2.60;;
20997;SDS011;10657;51.276;6.390;2023-08-08T13:23:58;7.80;;;2.55;;
20997;SDS011;10657;51.276;6.390;2023-08-08T13:26:24;11.00;;;2.33;;
20997;SDS011;10657;51.276;6.390;2023-08-08T13:28:51;8.32;;;2.33;;
20997;SDS011;10657;51.276;6.390;2023-08-08T13:31:18;6.00;;;2.20;;
20997;SDS011;10657;51.276;6.390;2023-08-08T13:33:45;7.85;;;2.25;;
20997;SDS011;10657;51.276;6.390;2023-08-08T13:36:11;7.50;;;2.10;;
20997;SDS011;10657;51.276;6.390;2023-08-08T13:38:38;6.15;;;2.10;;
20997;SDS011;10657;51.276;6.390;2023-08-08T13:41:05;7.82;;;2.20;;
20997;SDS011;10657;51.276;6.390;2023-08-08T13:43:31;7.35;;;2.28;;
20997;SDS011;10657;51.276;6.390;2023-08-08T13:45:58;7.05;;;2.42;;
20997;SDS011;10657;51.276;6.390;2023-08-08T13:48:26;7.32;;;2.30;;
20997;SDS011;10657;51.276;6.390;2023-08-08T13:50:53;8.40;;;2.40;;
20997;SDS011;10657;51.276;6.390;2023-08-08T13:53:19;7.20;;;2.40;;
20997;SDS011;10657;51.276;6.390;2023-08-08T13:55:46;6.53;;;2.55;;
20997;SDS011;10657;51.276;6.390;2023-08-08T13:58:13;6.40;;;2.40;;
20997;SDS011;10657;51.276;6.390;2023-08-08T14:00:39;6.60;;;2.50;;
20997;SDS011;10657;51.276;6.390;2023-08-08T14:03:07;5.22;;;2.17;;
20997;SDS011;10657;51.276;6.390;2023-08-08T14:05:34;8.15;;;2.20;;
20997;SDS011;10657;51.276;6.390;2023-08-08T14:08:00;8.13;;;2.58;;
20997;SDS011;10657;51.276;6.390;2023-08-08T14:10:27;7.00;;;2.15;;
20997;SDS011;10657;51.276;6.390;2023-08-08T14:12:54;8.77;;;2.20;;
20997;SDS011;10657;51.276;6.390;2023-08-08T14:15:20;7.57;;;2.15;;
20997;SDS011;10657;51.276;6.390;2023-08-08T14:17:47;5.85;;;1.77;;
20997;SDS011;10657;51.276;6.390;2023-08-08T14:20:14;7.35;;;2.13;;
20997;SDS011;10657;51.276;6.390;2023-08-08T14:22:44;5.40;;;2.10;;
20997;SDS011;10657;51.276;6.390;2023-08-08T14:25:14;5.28;;;1.95;;
20997;SDS011;10657;51.276;6.390;2023-08-08T14:27:41;4.45;;;1.80;;
20997;SDS011;10657;51.276;6.390;2023-08-08T14:30:08;6.65;;;1.90;;
20997;SDS011;10657;51.276;6.390;2023-08-08T14:32:36;5.07;;;1.60;;
20997;SDS011;10657;51.276;6.390;2023-08-08T14:35:03;5.50;;;1.75;;
20997;SDS011;10657;51.276;6.390;2023-08-08T14:37:31;6.82;;;1.92;;
20997;SDS011;10657;51.276;6.390;2023-08-08T14:39:58;7.60;;;1.70;;
20997;SDS011;10657;51.276;6.390;2023-08-08T14:42:25;5.63;;;1.80;;
20997;SDS011;10657;51.276;6.390;2023-08-08T14:44:52;6.95;;;2.03;;
20997;SDS011;10657;51.276;6.390;2023-08-08T14:47:18;4.80;;;1.90;;